createdAt,value
2017-05-08T00:01:18.424Z,21.68
2017-05-08T00:03:45.433Z,21.02
2017-05-08T00:06:13.219Z,22.25
2017-05-08T00:08:40.225Z,20.48
2017-05-08T00:11:07.243Z,23.67
2017-05-08T00:13:34.288Z,19.85
2017-05-08T00:16:02.232Z,21.07
2017-05-08T00:18:29.291Z,22.73
2017-05-08T00:20:56.287Z,18.87
2017-05-08T00:23:24.061Z,20.33
2017-05-08T00:25:51.835Z,20.42
2017-05-08T00:28:19.578Z,29.45
2017-05-08T00:30:46.618Z,21.60
2017-05-08T00:33:13.660Z,21.93
2017-05-08T00:35:40.703Z,22.22
2017-05-08T00:38:07.757Z,19.37
2017-05-08T00:40:34.801Z,19.95
2017-05-08T00:43:01.782Z,22.65
2017-05-08T00:45:28.826Z,21.45
2017-05-08T00:47:56.580Z,24.07
2017-05-08T00:50:24.363Z,22.28
2017-05-08T00:52:51.417Z,19.43
2017-05-08T00:55:18.450Z,18.25
2017-05-08T00:57:45.484Z,20.77
2017-05-08T01:00:13.287Z,17.08
2017-05-08T01:02:40.300Z,23.00
2017-05-08T01:05:07.299Z,15.30
2017-05-08T01:07:34.359Z,13.75
2017-05-08T01:10:01.386Z,14.55
2017-05-08T01:12:28.916Z,18.55
2017-05-08T01:14:55.960Z,13.12
2017-05-08T01:17:22.977Z,13.58
2017-05-08T01:19:50.282Z,13.77
2017-05-08T01:22:17.299Z,12.92
2017-05-08T01:24:45.103Z,13.05
2017-05-08T01:27:12.169Z,14.05
2017-05-08T01:29:39.194Z,12.67
2017-05-08T01:32:06.281Z,13.98
2017-05-08T01:34:33.362Z,13.83
2017-05-08T01:37:00.456Z,15.23
2017-05-08T01:39:27.551Z,15.40
2017-05-08T01:41:54.601Z,12.98
2017-05-08T01:44:22.545Z,14.65
2017-05-08T01:46:50.561Z,15.97
2017-05-08T01:49:17.604Z,16.03
2017-05-08T01:51:44.665Z,17.68
2017-05-08T01:54:11.662Z,18.17
2017-05-08T01:56:39.428Z,16.30
2017-05-08T01:59:07.236Z,19.13
2017-05-08T02:01:34.257Z,18.57
2017-05-08T02:04:01.282Z,17.88
2017-05-08T02:06:29.080Z,21.24
2017-05-08T02:08:56.089Z,19.50
2017-05-08T02:11:23.841Z,19.15
2017-05-08T02:13:50.918Z,23.35
2017-05-08T02:16:17.938Z,27.77
2017-05-08T02:18:44.954Z,24.50
2017-05-08T02:21:12.003Z,24.32
2017-05-08T02:23:39.018Z,28.32
2017-05-08T02:26:06.018Z,35.68
2017-05-08T02:28:33.083Z,25.03
2017-05-08T02:31:00.099Z,30.60
2017-05-08T02:33:27.148Z,28.73
2017-05-08T02:35:54.219Z,27.37
2017-05-08T02:38:21.997Z,32.37
2017-05-08T02:40:49.763Z,35.03
2017-05-08T02:43:17.530Z,29.00
2017-05-08T02:45:44.540Z,34.00
2017-05-08T02:48:11.563Z,32.42
2017-05-08T02:50:38.632Z,33.93
2017-05-08T02:53:05.641Z,38.53
2017-05-08T02:55:32.676Z,36.30
2017-05-08T02:57:59.720Z,32.12
2017-05-08T03:00:26.771Z,33.07
2017-05-08T03:02:53.805Z,44.03
2017-05-08T03:05:20.822Z,42.03
2017-05-08T03:07:47.868Z,34.48
2017-05-08T03:10:15.179Z,34.47
2017-05-08T03:12:42.187Z,38.73
2017-05-08T03:15:09.923Z,37.63
2017-05-08T03:17:36.966Z,36.82
2017-05-08T03:20:03.956Z,42.80
2017-05-08T03:22:31.053Z,37.07
2017-05-08T03:24:58.145Z,47.73
2017-05-08T03:27:25.899Z,49.63
2017-05-08T03:29:53.652Z,45.92
2017-05-08T03:32:20.691Z,52.47
2017-05-08T03:34:47.699Z,40.87
2017-05-08T03:37:14.742Z,48.73
2017-05-08T03:39:41.764Z,47.75
2017-05-08T03:42:08.784Z,43.70
2017-05-08T03:44:35.840Z,54.40
2017-05-08T03:47:03.609Z,46.40
2017-05-08T03:49:31.365Z,60.88
2017-05-08T03:51:59.158Z,48.75
2017-05-08T03:54:26.166Z,57.60
2017-05-08T03:56:53.198Z,44.45
2017-05-08T03:59:20.202Z,44.95
2017-05-08T04:01:47.246Z,53.33
2017-05-08T04:04:14.263Z,52.20
2017-05-08T04:06:42.058Z,67.10
2017-05-08T04:09:09.069Z,62.53
2017-05-08T04:11:36.095Z,56.40
2017-05-08T04:14:03.150Z,55.32
2017-05-08T04:16:30.170Z,68.20
2017-05-08T04:18:57.216Z,69.60
2017-05-08T04:21:24.272Z,63.33
2017-05-08T04:23:51.295Z,62.57
2017-05-08T04:26:18.330Z,54.38
2017-05-08T04:28:45.362Z,70.80
2017-05-08T04:31:13.115Z,61.33
2017-05-08T04:33:40.871Z,60.25
2017-05-08T04:36:07.917Z,79.37
2017-05-08T04:38:34.989Z,61.98
2017-05-08T04:41:02.003Z,67.93
2017-05-08T04:43:29.037Z,69.28
2017-05-08T04:45:56.053Z,65.58
2017-05-08T04:48:23.070Z,64.80
2017-05-08T04:50:50.131Z,71.53
2017-05-08T04:53:17.210Z,57.65
2017-05-08T04:55:44.250Z,59.73
2017-05-08T04:58:11.242Z,62.32
2017-05-08T05:00:39.027Z,81.30
2017-05-08T05:03:06.063Z,60.73
2017-05-08T05:05:33.050Z,71.75
2017-05-08T05:08:00.116Z,70.02
2017-05-08T05:10:27.138Z,54.40
2017-05-08T05:12:54.217Z,75.17
2017-05-08T05:15:21.289Z,54.85
2017-05-08T05:17:49.791Z,54.85
2017-05-08T05:20:16.816Z,51.35
2017-05-08T05:22:43.868Z,49.02
2017-05-08T05:25:11.611Z,57.93
2017-05-08T05:27:38.623Z,56.93
2017-05-08T05:30:05.749Z,55.05
2017-05-08T05:32:32.786Z,57.75
2017-05-08T05:35:00.541Z,52.07
2017-05-08T05:37:28.330Z,58.63
2017-05-08T05:39:55.399Z,61.53
2017-05-08T05:42:22.437Z,55.20
2017-05-08T05:44:49.437Z,55.70
2017-05-08T05:47:17.252Z,59.88
2017-05-08T05:49:44.238Z,51.78
2017-05-08T05:52:11.268Z,49.23
2017-05-08T05:54:38.295Z,58.07
2017-05-08T05:57:05.285Z,49.52
2017-05-08T05:59:32.283Z,49.43
2017-05-08T06:01:59.360Z,48.37
2017-05-08T06:04:26.395Z,49.25
2017-05-08T06:06:53.389Z,45.05
2017-05-08T06:09:21.180Z,41.25
2017-05-08T06:11:48.240Z,42.48
2017-05-08T06:14:15.262Z,47.97
2017-05-08T06:16:42.327Z,37.60
2017-05-08T06:19:09.367Z,36.07
2017-05-08T06:21:36.435Z,37.58
2017-05-08T06:24:03.507Z,35.70
2017-05-08T06:26:30.512Z,34.85
2017-05-08T06:28:57.526Z,36.82
2017-05-08T06:31:25.406Z,33.93
2017-05-08T06:33:52.415Z,39.45
2017-05-08T06:36:19.411Z,34.30
2017-05-08T06:38:46.431Z,37.13
2017-05-08T06:41:14.169Z,32.67
2017-05-08T06:43:41.243Z,32.93
2017-05-08T06:46:08.983Z,35.88
2017-05-08T06:48:36.017Z,34.52
2017-05-08T06:51:03.066Z,38.07
2017-05-08T06:53:30.176Z,35.40
2017-05-08T06:55:57.207Z,37.98
2017-05-08T06:58:24.229Z,34.60
2017-05-08T07:00:51.223Z,37.57
2017-05-08T07:03:18.216Z,36.22
2017-05-08T07:05:45.257Z,39.40
2017-05-08T07:08:12.268Z,41.15
2017-05-08T07:10:39.263Z,36.95
2017-05-08T07:13:07.067Z,38.15
2017-05-08T07:15:34.091Z,41.88
2017-05-08T07:18:01.859Z,54.20
2017-05-08T07:20:28.885Z,50.88
2017-05-08T07:22:55.958Z,47.35
2017-05-08T07:25:23.014Z,56.18
2017-05-08T07:27:50.020Z,54.35
2017-05-08T07:30:17.049Z,48.22
2017-05-08T07:32:44.077Z,46.42
2017-05-08T07:35:11.074Z,55.80
2017-05-08T07:37:38.846Z,53.53
2017-05-08T07:40:05.840Z,61.00
2017-05-08T07:42:32.924Z,48.88
2017-05-08T07:45:00.653Z,50.33
2017-05-08T07:47:27.700Z,51.88
2017-05-08T07:49:54.762Z,58.92
2017-05-08T07:52:21.786Z,62.92
2017-05-08T07:54:48.823Z,60.87
2017-05-08T07:57:15.871Z,59.18
2017-05-08T07:59:42.854Z,49.53
2017-05-08T08:02:10.072Z,51.17
2017-05-08T08:04:37.072Z,46.03
2017-05-08T08:07:04.822Z,50.70
2017-05-08T08:09:31.855Z,50.10
2017-05-08T08:11:58.854Z,44.45
2017-05-08T08:14:25.893Z,38.12
2017-05-08T08:16:52.907Z,37.63
2017-05-08T08:19:19.897Z,41.58
2017-05-08T08:21:46.960Z,39.33
2017-05-08T08:24:14.000Z,31.37
2017-05-08T08:26:40.996Z,33.83
2017-05-08T08:29:08.013Z,33.80
2017-05-08T08:31:35.128Z,34.32
2017-05-08T08:34:02.212Z,36.60
2017-05-08T08:36:29.219Z,35.98
2017-05-08T08:38:56.291Z,35.50
2017-05-08T08:41:23.271Z,32.48
2017-05-08T08:43:50.274Z,35.45
2017-05-08T08:46:17.316Z,38.33
2017-05-08T08:48:44.370Z,30.28
2017-05-08T08:51:11.428Z,29.75
2017-05-08T08:53:38.447Z,32.00
2017-05-08T08:56:05.439Z,30.25
2017-05-08T08:58:32.479Z,33.70
2017-05-08T09:00:59.484Z,40.73
2017-05-08T09:03:26.490Z,33.70
2017-05-08T09:05:53.496Z,27.73
2017-05-08T09:08:20.577Z,34.32
2017-05-08T09:10:47.614Z,28.10
2017-05-08T09:13:14.654Z,29.67
2017-05-08T09:15:41.745Z,31.22
2017-05-08T09:18:09.480Z,28.03
2017-05-08T09:20:36.500Z,26.60
2017-05-08T09:23:04.506Z,26.30
2017-05-08T09:25:31.526Z,24.08
2017-05-08T09:27:58.629Z,24.85
2017-05-08T09:30:24.945Z,21.48
2017-05-08T09:32:52.754Z,24.92
2017-05-08T09:35:19.785Z,20.93
2017-05-08T09:37:46.809Z,19.63
2017-05-08T09:40:14.580Z,17.92
2017-05-08T09:42:41.593Z,16.37
2017-05-08T09:45:08.682Z,15.12
2017-05-08T09:47:35.689Z,20.17
2017-05-08T09:50:02.701Z,15.15
2017-05-08T09:52:29.773Z,15.62
2017-05-08T09:54:56.765Z,14.32
2017-05-08T09:57:23.808Z,15.77
2017-05-08T09:59:50.878Z,12.63
2017-05-08T10:02:17.912Z,13.93
2017-05-08T10:04:44.963Z,15.72
2017-05-08T10:07:13.116Z,18.00
2017-05-08T10:09:40.197Z,17.18
2017-05-08T10:12:07.229Z,13.82
2017-05-08T10:14:34.261Z,12.75
2017-05-08T10:17:02.004Z,12.12
2017-05-08T10:19:29.000Z,13.12
2017-05-08T10:21:56.057Z,13.05
2017-05-08T10:24:23.101Z,13.72
2017-05-08T10:26:50.112Z,10.62
2017-05-08T10:29:17.862Z,11.50
2017-05-08T10:31:45.701Z,11.12
2017-05-08T10:34:13.376Z,9.72
2017-05-08T10:36:40.422Z,11.13
2017-05-08T10:39:07.484Z,10.08
2017-05-08T10:41:35.197Z,8.37
2017-05-08T10:44:02.247Z,10.27
2017-05-08T10:46:29.940Z,7.82
2017-05-08T10:48:57.507Z,9.20
2017-05-08T10:51:24.560Z,10.23
2017-05-08T10:53:52.277Z,7.85
2017-05-08T10:56:19.283Z,6.88
2017-05-08T10:58:46.374Z,5.25
2017-05-08T11:01:14.515Z,5.42
2017-05-08T11:03:41.656Z,4.42
2017-05-08T11:06:08.691Z,4.93
2017-05-08T11:08:36.477Z,5.57
2017-05-08T11:11:03.548Z,4.38
2017-05-08T11:13:36.668Z,5.52
2017-05-08T11:16:03.689Z,4.42
2017-05-08T11:18:30.702Z,5.58
2017-05-08T11:20:57.722Z,5.12
2017-05-08T11:23:24.745Z,4.17
2017-05-08T11:25:51.787Z,4.38
2017-05-08T11:28:18.897Z,3.70
2017-05-08T11:30:45.882Z,5.48
2017-05-08T11:33:12.893Z,4.28
2017-05-08T11:35:39.918Z,5.58
2017-05-08T11:38:07.655Z,4.32
2017-05-08T11:40:34.668Z,5.10
2017-05-08T11:43:01.688Z,4.13
2017-05-08T11:45:28.712Z,3.88
2017-05-08T11:47:55.813Z,5.17
2017-05-08T11:50:22.807Z,6.45
2017-05-08T11:52:49.782Z,6.47
2017-05-08T11:55:16.824Z,8.28
2017-05-08T11:57:43.865Z,8.17
2017-05-08T12:00:10.893Z,8.72
2017-05-08T12:02:39.025Z,10.67
2017-05-08T12:05:06.067Z,12.52
2017-05-08T12:07:33.186Z,11.43
2017-05-08T12:10:00.279Z,12.02
2017-05-08T12:12:27.300Z,14.77
2017-05-08T12:14:54.327Z,12.67
2017-05-08T12:17:21.333Z,12.43
2017-05-08T12:19:49.255Z,13.68
2017-05-08T12:22:16.277Z,15.73
2017-05-08T12:24:44.036Z,16.98
2017-05-08T12:27:11.119Z,17.25
2017-05-08T12:29:38.098Z,16.90
2017-05-08T12:32:05.148Z,18.90
2017-05-08T12:34:32.146Z,25.15
2017-05-08T12:36:59.184Z,25.22
2017-05-08T12:39:26.183Z,30.07
2017-05-08T12:41:53.246Z,31.50
2017-05-08T12:44:20.280Z,28.85
2017-05-08T12:46:47.291Z,37.12
2017-05-08T12:49:14.340Z,33.87
2017-05-08T12:51:41.368Z,36.62
2017-05-08T12:54:08.365Z,34.57
2017-05-08T12:56:35.364Z,34.62
2017-05-08T12:59:02.382Z,36.50
2017-05-08T13:01:29.422Z,36.05
2017-05-08T13:03:57.197Z,32.60
2017-05-08T13:06:24.930Z,31.47
2017-05-08T13:08:51.965Z,31.70
2017-05-08T13:11:18.994Z,32.08
2017-05-08T13:13:46.075Z,32.78
2017-05-08T13:16:13.081Z,30.47
2017-05-08T13:18:40.079Z,28.62
2017-05-08T13:21:07.132Z,32.08
2017-05-08T13:23:34.879Z,33.88
2017-05-08T13:26:01.942Z,31.83
2017-05-08T13:28:29.707Z,31.75
2017-05-08T13:30:56.708Z,30.42
2017-05-08T13:33:23.745Z,34.73
2017-05-08T13:35:50.740Z,28.78
2017-05-08T13:38:17.760Z,37.13
2017-05-08T13:40:44.826Z,35.92
2017-05-08T13:43:11.872Z,40.27
2017-05-08T13:45:38.874Z,36.20
2017-05-08T13:48:05.868Z,35.70
2017-05-08T13:50:32.883Z,31.63
2017-05-08T13:52:59.892Z,35.25
2017-05-08T13:55:26.998Z,32.47
2017-05-08T13:57:54.047Z,32.80
2017-05-08T14:00:21.043Z,27.92
2017-05-08T14:02:48.047Z,30.03
2017-05-08T14:05:15.111Z,32.97
2017-05-08T14:07:42.111Z,30.98
2017-05-08T14:10:09.135Z,28.42
2017-05-08T14:12:36.197Z,28.45
2017-05-08T14:15:03.218Z,28.05
2017-05-08T14:17:30.218Z,25.33
2017-05-08T14:19:57.468Z,28.77
2017-05-08T14:22:24.476Z,27.98
2017-05-08T14:24:51.495Z,27.75
2017-05-08T14:27:19.280Z,26.72
2017-05-08T14:29:46.315Z,32.33
2017-05-08T14:32:13.438Z,24.58
2017-05-08T14:34:40.472Z,29.15
2017-05-08T14:37:07.510Z,26.18
2017-05-08T14:39:34.583Z,26.57
2017-05-08T14:42:01.634Z,30.13
2017-05-08T14:44:29.398Z,28.93
2017-05-08T14:46:57.122Z,27.72
2017-05-08T14:49:24.163Z,26.27
2017-05-08T14:51:51.220Z,27.03
2017-05-08T14:54:18.264Z,28.27
2017-05-08T14:56:45.279Z,27.08
2017-05-08T14:59:12.343Z,23.83
2017-05-08T15:01:39.358Z,24.27
2017-05-08T15:04:06.366Z,23.28
2017-05-08T15:06:33.415Z,25.53
2017-05-08T15:09:00.432Z,19.42
2017-05-08T15:11:27.452Z,26.95
2017-05-08T15:13:54.482Z,25.42
2017-05-08T15:16:22.224Z,22.07
2017-05-08T15:18:49.274Z,23.72
2017-05-08T15:21:16.281Z,19.90
2017-05-08T15:23:43.350Z,18.97
2017-05-08T15:26:10.434Z,17.32
2017-05-08T15:28:38.200Z,18.98
2017-05-08T15:31:05.987Z,19.82
2017-05-08T15:33:33.083Z,49.05
2017-05-08T15:36:00.096Z,18.38
2017-05-08T15:38:27.097Z,17.42
2017-05-08T15:40:54.890Z,20.43
2017-05-08T15:43:21.905Z,22.72
2017-05-08T15:45:48.895Z,28.13
2017-05-08T15:48:15.985Z,35.85
2017-05-08T15:50:42.995Z,26.45
2017-05-08T15:53:10.064Z,28.65
2017-05-08T15:55:37.110Z,32.62
2017-05-08T15:58:04.184Z,32.88
2017-05-08T16:00:31.211Z,31.88
2017-05-08T16:02:58.318Z,27.20
2017-05-08T16:05:25.330Z,33.65
2017-05-08T16:07:53.048Z,32.55
2017-05-08T16:10:20.125Z,38.63
2017-05-08T16:12:47.105Z,42.27
2017-05-08T16:15:14.132Z,29.58
2017-05-08T16:17:41.976Z,28.73
2017-05-08T16:20:09.034Z,30.15
2017-05-08T16:22:36.058Z,31.58
2017-05-08T16:25:03.080Z,36.58
2017-05-08T16:27:30.622Z,33.52
2017-05-08T16:29:57.660Z,34.37
2017-05-08T16:32:24.747Z,40.08
2017-05-08T16:34:52.087Z,39.82
2017-05-08T16:37:19.126Z,40.60
2017-05-08T16:39:46.205Z,39.95
2017-05-08T16:42:13.218Z,37.73
2017-05-08T16:44:40.316Z,40.50
2017-05-08T16:47:07.363Z,41.48
2017-05-08T16:49:34.380Z,37.47
2017-05-08T16:52:01.485Z,43.62
2017-05-08T16:54:29.260Z,37.80
2017-05-08T16:56:56.281Z,39.58
2017-05-08T16:59:23.361Z,42.85
2017-05-08T17:01:50.395Z,38.52
2017-05-08T17:04:18.191Z,40.22
2017-05-08T17:06:45.251Z,39.40
2017-05-08T17:09:12.580Z,37.45
2017-05-08T17:11:39.633Z,36.27
2017-05-08T17:14:06.651Z,35.75
2017-05-08T17:16:34.701Z,39.25
2017-05-08T17:19:01.712Z,36.95
2017-05-08T17:21:29.060Z,36.67
2017-05-08T17:23:56.115Z,32.50
2017-05-08T17:26:23.163Z,32.23
2017-05-08T17:28:50.219Z,31.73
2017-05-08T17:31:17.267Z,34.32
2017-05-08T17:33:44.308Z,29.65
2017-05-08T17:36:11.328Z,40.92
2017-05-08T17:38:38.380Z,36.78
2017-05-08T17:41:05.459Z,36.05
2017-05-08T17:43:32.644Z,30.92
2017-05-08T17:46:00.417Z,32.95
2017-05-08T17:48:28.174Z,33.68
2017-05-08T17:50:56.012Z,30.90
2017-05-08T17:53:23.043Z,32.18
2017-05-08T17:55:50.040Z,26.73
2017-05-08T17:58:17.843Z,30.15
2017-05-08T18:00:44.867Z,31.63
2017-05-08T18:03:11.943Z,29.55
2017-05-08T18:05:39.040Z,27.82
2017-05-08T18:08:06.117Z,31.58
2017-05-08T18:10:33.126Z,29.42
2017-05-08T18:13:00.946Z,38.02
2017-05-08T18:15:27.956Z,37.45
2017-05-08T18:17:55.723Z,28.93
2017-05-08T18:20:22.770Z,26.13
2017-05-08T18:22:51.205Z,33.22
2017-05-08T18:25:18.263Z,28.68
2017-05-08T18:27:45.306Z,36.72
2017-05-08T18:30:12.324Z,34.25
2017-05-08T18:32:39.463Z,28.32
2017-05-08T18:35:06.490Z,28.25
2017-05-08T18:37:33.572Z,24.92
2017-05-08T18:40:00.623Z,26.37
2017-05-08T18:42:27.689Z,25.35
2017-05-08T18:44:54.826Z,25.03
2017-05-08T18:47:21.861Z,25.43
2017-05-08T18:49:48.894Z,24.18
2017-05-08T18:52:15.942Z,24.08
2017-05-08T18:54:43.044Z,21.52
2017-05-08T18:57:10.054Z,22.30
2017-05-08T18:59:38.814Z,26.15
2017-05-08T19:02:05.857Z,29.48
2017-05-08T19:04:32.861Z,27.53
2017-05-08T19:07:00.689Z,27.17
2017-05-08T19:09:27.707Z,28.17
2017-05-08T19:11:54.757Z,30.62
2017-05-08T19:14:22.132Z,27.65
2017-05-08T19:16:49.163Z,31.03
2017-05-08T19:19:17.156Z,31.38
2017-05-08T19:21:44.211Z,35.52
2017-05-08T19:24:11.250Z,32.97
2017-05-08T19:26:38.279Z,36.63
2017-05-08T19:29:05.312Z,37.52
2017-05-08T19:31:32.419Z,37.12
2017-05-08T19:33:59.513Z,35.45
2017-05-08T19:36:26.596Z,39.73
2017-05-08T19:38:54.695Z,32.92
2017-05-08T19:41:21.755Z,38.92
2017-05-08T19:43:49.621Z,42.03
2017-05-08T19:46:17.359Z,45.48
2017-05-08T19:48:44.483Z,42.87
2017-05-08T19:51:16.054Z,39.15
2017-05-08T19:53:43.106Z,37.63
2017-05-08T19:56:10.218Z,41.15
2017-05-08T19:58:37.740Z,37.25
2017-05-08T20:01:08.340Z,49.05
2017-05-08T20:03:35.419Z,43.72
2017-05-08T20:06:03.253Z,46.02
2017-05-08T20:08:30.285Z,38.92
2017-05-08T20:11:00.179Z,39.30
2017-05-08T20:13:27.232Z,51.57
2017-05-08T20:15:55.081Z,48.78
2017-05-08T20:18:22.070Z,41.48
2017-05-08T20:20:49.083Z,45.25
2017-05-08T20:23:17.075Z,44.52
2017-05-08T20:25:44.091Z,45.40
2017-05-08T20:28:11.148Z,39.42
2017-05-08T20:30:38.214Z,41.67
2017-05-08T20:33:05.251Z,43.67
2017-05-08T20:35:32.377Z,45.12
2017-05-08T20:37:59.409Z,39.42
2017-05-08T20:40:27.164Z,41.30
2017-05-08T20:42:54.177Z,42.62
2017-05-08T20:45:21.243Z,42.65
2017-05-08T20:47:48.885Z,45.17
2017-05-08T20:50:15.917Z,27.87
2017-05-08T20:52:42.995Z,30.25
2017-05-08T20:55:10.017Z,29.87
2017-05-08T20:57:37.007Z,28.05
2017-05-08T21:00:05.671Z,30.73
2017-05-08T21:02:33.229Z,29.98
2017-05-08T21:05:00.293Z,34.33
2017-05-08T21:07:27.329Z,29.87
2017-05-08T21:09:54.349Z,32.50
2017-05-08T21:12:21.352Z,31.27
2017-05-08T21:14:48.387Z,32.60
2017-05-08T21:17:16.132Z,36.98
2017-05-08T21:19:43.148Z,32.08
2017-05-08T21:22:10.266Z,34.17
2017-05-08T21:24:37.295Z,32.95
2017-05-08T21:27:05.037Z,31.88
2017-05-08T21:29:32.080Z,30.20
2017-05-08T21:31:59.081Z,29.90
2017-05-08T21:34:26.082Z,33.45
2017-05-08T21:36:53.102Z,32.15
2017-05-08T21:39:20.107Z,40.10
2017-05-08T21:41:47.120Z,30.97
2017-05-08T21:44:14.137Z,30.82
2017-05-08T21:46:41.253Z,30.32
2017-05-08T21:49:08.293Z,34.20
2017-05-08T21:51:35.289Z,27.90
2017-05-08T21:54:02.360Z,30.27
2017-05-08T21:56:29.352Z,33.73
2017-05-08T21:58:56.377Z,29.50
2017-05-08T22:01:23.405Z,37.28
2017-05-08T22:03:50.404Z,30.55
2017-05-08T22:06:17.415Z,33.95
2017-05-08T22:08:45.250Z,32.57
2017-05-08T22:11:12.275Z,28.32
2017-05-08T22:13:39.381Z,37.38
2017-05-08T22:16:06.381Z,25.93
2017-05-08T22:18:33.399Z,27.88
2017-05-08T22:21:00.482Z,30.72
2017-05-08T22:23:27.489Z,36.63
2017-05-08T22:25:54.518Z,32.87
2017-05-08T22:28:21.557Z,32.15
2017-05-08T22:30:48.574Z,27.88
2017-05-08T22:33:15.591Z,31.03
2017-05-08T22:35:42.647Z,29.82
2017-05-08T22:38:09.651Z,30.28
2017-05-08T22:40:36.726Z,29.52
2017-05-08T22:43:03.792Z,28.38
2017-05-08T22:45:30.783Z,28.57
2017-05-08T22:47:58.544Z,26.03
2017-05-08T22:50:25.567Z,30.32
2017-05-08T22:52:52.552Z,30.57
2017-05-08T22:55:19.584Z,28.78
2017-05-08T22:57:47.357Z,29.50
2017-05-08T23:00:14.408Z,29.92
2017-05-08T23:02:41.446Z,27.93
2017-05-08T23:05:08.465Z,25.63
2017-05-08T23:07:35.476Z,30.78
2017-05-08T23:10:02.528Z,26.32
2017-05-08T23:12:29.530Z,27.88
2017-05-08T23:14:57.278Z,33.80
2017-05-08T23:17:25.169Z,32.60
2017-05-08T23:19:52.167Z,31.23
2017-05-08T23:22:19.179Z,29.73
2017-05-08T23:24:46.232Z,32.35
2017-05-08T23:27:13.209Z,32.07
2017-05-08T23:29:40.219Z,27.92
2017-05-08T23:32:07.263Z,25.87
2017-05-08T23:34:34.245Z,24.67
2017-05-08T23:37:01.234Z,30.97
2017-05-08T23:39:29.706Z,27.95
2017-05-08T23:41:56.705Z,29.27
2017-05-08T23:44:23.741Z,27.35
2017-05-08T23:46:50.788Z,32.90
2017-05-08T23:49:17.778Z,34.78
2017-05-08T23:51:45.519Z,28.80
2017-05-08T23:54:12.575Z,30.13
2017-05-08T23:56:39.616Z,33.80
2017-05-08T23:59:06.644Z,28.17
